26MA weather

Pepperell Airport
Pepperell, Massachusetts, United States

Public forecast

Using degrees Fahrenheit for public forecast. Weather courtesy of forecast.io.

Closest aviation weather report (METAR) to Pepperell Airport

Closest report is Boire Field, 5.4 nm (9.9 km) NNE. Retrieved 2020/04/04 08:56 UTC (17 minutes ago):

KASH 040856Z AUTO 03006KT 9SM OVC010 05/05 A2999 RMK AO2 CIG 008V014 SLP163 60001 T00500050 53010

Closest aviation forecast (TAF) to Pepperell Airport

Closest forecast is Manchester-Boston Regional Airport, 15.1 nm (27.9 km) NNE. Retrieved 2020/04/04 06:00 UTC (3 hours ago):

TAF COR KMHT 040556Z 0406/0506 02008G15KT 5SM -SHRA OVC015 FM040900 02007KT P6SM OVC010 FM041600 03006KT P6SM BKN020 FM042300 00000KT P6SM SCT030